Ana Sayfa
METAR-TAF:

METAR-TAF

Havaalanları :

Halmstad, İsveç

Enlem: 56-41N, Boylam: 012-50E, yükseklik: 30 m

Güncel hava durumu gözlemi

Rapor saat 03:20 UTC de 9 dakika önce yapıldı.
Rüzgar doğu/güneydoğudan 6 kt
Sıcaklık 0°C
Nem 74%
Basınç 1001 hPa
Görüş mesafesi 10 km veya daha fazla
hafif kar

METAR: ESMT 280320Z AUTO 12006KT 9999 -SN OVC011/// M00/M04 Q1001

Saat: 04:29 (03:29 UTC)

Tahmin

Rapor saat 20:08 UTC de 7 saat ve 21 dakika önce yapıldı.
Ayın 27'si saat 21 UTC'den ayın 27'si saat 24 UTC'ye kadar geçerli Tahmin
Rüzgar doğudan 4 kt
Görüş mesafesi 10 km veya daha fazla
4500 ft yükseklikte parçalı çok bulutlu

TAF: ESMT 272008Z 2721/2724 10004KT 9999 BKN045

4.000'den fazla havaalanı için hava durumu gözlemleri ve tahminleri (METAR ve TAF raporları).

Kullanılabilir istasyonlar harita üzerinde sarı ve kırmızı noktalarla gösterilir.

İstasyonun adını görmek için fareyi noktanın üzerinde gezdirin.

Sonrasında hava gözlem ve tahminlerini görmek için tıklayın.

Haritayı değiştirmek için: yaklaştırmak için siyah artı işaretli yeşil düğmeye ve uzaklaştırmak için de eksi işaretli düğmeye hızla tıklayın; bitişik haritalar için yeşil okları kullanın.


METAR-TAF: